PILOTS ONLINE: 297    ATC ONLINE: 32

CYYH

Taloyoak Airport

Location

IATA YYH
City Taloyoak
Country  Canada
Latitude 69° 32' 48" N
Longitude 93° 34' 36" W
Elevation 92 ft
Type Medium Airport

Map

Weather

METAR
2014/09/01 11:00
CYYH 011100Z 13006KT 1/4SM FG SKC 02/02 A2986 RMK FG6 SLP115
TAF
2014/09/01 06:48
TAF CYYH 010545Z 0106/0118 VRB03KT P6SM FEW080 FEW210 
      BECMG 0108/0110 1/2SM FG OVC004 
     FM011000 VRB03KT 1/2SM FG OVC004 
      TEMPO 0110/0116 2SM BR BKN008 
     FM011600 VRB03KT P6SM SCT020 
      TEMPO 0116/0118 SCT004 BKN020 
      RMK NXT FCST BY 011200Z

Runways

15T/33T 4020 ft / 100 ft

Outbound flights

Callsign Flying to Pilot ATD/STD ETA Aircraft

Inbound flights

Callsign Flying from Pilot ATD ETA Aircraft